createdAt,value
2023-02-11T00:01:19.937Z,28.53
2023-02-11T00:03:47.897Z,29.52
2023-02-11T00:06:15.938Z,27.33
2023-02-11T00:08:43.579Z,29.83
2023-02-11T00:11:16.093Z,30.45
2023-02-11T00:13:44.682Z,29.10
2023-02-11T00:16:15.488Z,29.92
2023-02-11T00:18:43.391Z,29.40
2023-02-11T00:21:16.247Z,32.50
2023-02-11T00:23:44.917Z,30.73
2023-02-11T00:26:20.753Z,31.73
2023-02-11T00:28:50.038Z,32.38
2023-02-11T00:31:19.838Z,31.83
2023-02-11T00:33:49.563Z,39.20
2023-02-11T00:36:20.421Z,38.35
2023-02-11T00:38:50.026Z,34.20
2023-02-11T00:41:18.665Z,31.23
2023-02-11T00:43:46.303Z,33.92
2023-02-11T00:46:14.508Z,33.78
2023-02-11T00:48:42.253Z,34.95
2023-02-11T00:51:10.048Z,32.77
2023-02-11T00:53:38.449Z,34.05
2023-02-11T00:56:06.375Z,32.88
2023-02-11T00:58:34.300Z,31.92
2023-02-11T01:01:02.697Z,31.25
2023-02-11T01:03:30.640Z,39.57
2023-02-11T01:05:58.362Z,31.58
2023-02-11T01:08:26.860Z,36.15
2023-02-11T01:11:00.153Z,30.60
2023-02-11T01:13:28.824Z,33.55
2023-02-11T01:15:56.814Z,33.80
2023-02-11T01:18:26.090Z,28.52
2023-02-11T01:20:54.471Z,29.83
2023-02-11T01:23:24.213Z,33.42
2023-02-11T01:25:52.094Z,32.72
2023-02-11T01:28:22.868Z,34.73
2023-02-11T01:30:51.232Z,35.08
2023-02-11T01:33:18.886Z,31.80
2023-02-11T01:35:46.804Z,33.28
2023-02-11T01:38:23.526Z,38.22
2023-02-11T01:41:01.217Z,32.40
2023-02-11T01:43:36.835Z,30.62
2023-02-11T01:46:14.341Z,33.92
2023-02-11T01:48:44.715Z,25.65
2023-02-11T01:51:25.697Z,30.37
2023-02-11T01:54:12.355Z,30.83
2023-02-11T01:57:05.981Z,31.50
2023-02-11T01:59:41.542Z,32.33
2023-02-11T02:02:12.893Z,29.55
2023-02-11T02:04:54.666Z,34.53
2023-02-11T02:07:29.323Z,30.40
2023-02-11T02:10:03.782Z,34.30
2023-02-11T02:12:31.489Z,28.27
2023-02-11T02:15:35.331Z,33.20
2023-02-11T02:18:11.374Z,30.88
2023-02-11T02:21:04.043Z,28.57
2023-02-11T02:23:39.172Z,29.73
2023-02-11T02:26:16.586Z,32.83
2023-02-11T02:28:47.709Z,29.10
2023-02-11T02:31:52.963Z,29.85
2023-02-11T02:34:30.721Z,27.60
2023-02-11T02:37:10.620Z,28.48
2023-02-11T02:39:38.744Z,29.50
2023-02-11T02:42:07.424Z,29.17
2023-02-11T02:44:34.939Z,30.40
2023-02-11T02:47:02.880Z,32.47
2023-02-11T02:49:30.498Z,30.58
2023-02-11T02:52:02.512Z,38.25
2023-02-11T02:54:52.084Z,29.25
2023-02-11T02:57:47.362Z,25.02
2023-02-11T03:00:18.248Z,27.80
2023-02-11T03:02:58.190Z,27.95
2023-02-11T03:05:35.201Z,24.85
2023-02-11T03:08:09.241Z,26.17
2023-02-11T03:10:45.934Z,29.50
2023-02-11T03:13:17.011Z,28.13
2023-02-11T03:15:48.108Z,30.98
2023-02-11T03:18:19.041Z,23.90
2023-02-11T03:20:49.690Z,29.45
2023-02-11T03:23:23.241Z,30.08
2023-02-11T03:26:06.645Z,29.53
2023-02-11T03:28:41.407Z,24.12
2023-02-11T03:31:18.904Z,29.92
2023-02-11T03:33:57.548Z,27.92
2023-02-11T03:36:46.069Z,27.70
2023-02-11T03:39:18.066Z,27.53
2023-02-11T03:41:46.323Z,30.83
2023-02-11T03:44:15.832Z,28.27
2023-02-11T03:46:49.329Z,27.20
2023-02-11T03:49:20.328Z,27.80
2023-02-11T03:51:50.665Z,26.13
2023-02-11T03:54:21.418Z,27.27
2023-02-11T03:56:52.185Z,29.02
2023-02-11T03:59:19.974Z,31.17
2023-02-11T04:01:47.967Z,29.33
2023-02-11T04:04:16.155Z,26.37
2023-02-11T04:06:44.136Z,26.85
2023-02-11T04:09:12.121Z,29.80
2023-02-11T04:11:40.000Z,28.98
2023-02-11T04:14:07.501Z,23.60
2023-02-11T04:16:35.021Z,27.27
2023-02-11T04:19:02.933Z,27.25
2023-02-11T04:21:30.515Z,27.42
2023-02-11T04:23:58.020Z,24.45
2023-02-11T04:26:25.936Z,26.60
2023-02-11T04:28:53.491Z,24.33
2023-02-11T04:31:21.155Z,27.83
2023-02-11T04:33:48.987Z,31.35
2023-02-11T04:36:16.507Z,27.05
2023-02-11T04:38:44.038Z,27.23
2023-02-11T04:41:11.974Z,27.10
2023-02-11T04:43:39.632Z,25.02
2023-02-11T04:46:07.243Z,27.67
2023-02-11T04:48:35.361Z,29.40
2023-02-11T04:51:03.156Z,27.10
2023-02-11T04:53:30.688Z,29.43
2023-02-11T04:55:58.562Z,28.55
2023-02-11T04:58:26.374Z,27.20
2023-02-11T05:00:54.037Z,26.52
2023-02-11T05:03:21.839Z,27.50
2023-02-11T05:05:49.742Z,24.57
2023-02-11T05:08:17.887Z,26.48
2023-02-11T05:10:48.784Z,28.70
2023-02-11T05:13:16.492Z,29.60
2023-02-11T05:15:43.965Z,28.75
2023-02-11T05:18:12.136Z,30.53
2023-02-11T05:20:40.099Z,27.10
2023-02-11T05:23:07.811Z,31.65
2023-02-11T05:25:35.864Z,28.27
2023-02-11T05:28:04.472Z,30.08
2023-02-11T05:30:32.223Z,26.07
2023-02-11T05:33:00.179Z,28.12
2023-02-11T05:35:27.698Z,26.05
2023-02-11T05:37:55.270Z,25.90
2023-02-11T05:40:23.233Z,26.00
2023-02-11T05:42:50.794Z,25.97
2023-02-11T05:45:18.524Z,30.98
2023-02-11T05:47:46.300Z,28.05
2023-02-11T05:50:14.036Z,24.92
2023-02-11T05:52:41.567Z,25.02
2023-02-11T05:55:09.545Z,25.57
2023-02-11T05:57:37.110Z,28.77
2023-02-11T06:00:05.590Z,35.53
2023-02-11T06:02:40.271Z,32.80
2023-02-11T06:05:08.443Z,29.05
2023-02-11T06:07:36.034Z,29.97
2023-02-11T06:10:03.778Z,28.38
2023-02-11T06:12:31.651Z,26.60
2023-02-11T06:14:59.150Z,30.02
2023-02-11T06:17:26.718Z,28.23
2023-02-11T06:19:54.679Z,26.47
2023-02-11T06:22:22.237Z,26.37
2023-02-11T06:25:00.849Z,26.35
2023-02-11T06:27:29.756Z,28.55
2023-02-11T06:29:57.604Z,29.23
2023-02-11T06:32:43.274Z,27.37
2023-02-11T06:35:13.218Z,26.05
2023-02-11T06:37:41.453Z,27.25
2023-02-11T06:40:10.347Z,26.23
2023-02-11T06:42:41.041Z,22.87
2023-02-11T06:45:10.867Z,27.60
2023-02-11T06:47:39.999Z,27.73
2023-02-11T06:50:08.811Z,26.15
2023-02-11T06:52:36.400Z,25.08
2023-02-11T06:55:04.370Z,29.80
2023-02-11T06:57:32.476Z,27.23
2023-02-11T07:00:00.018Z,28.55
2023-02-11T07:02:28.003Z,24.02
2023-02-11T07:04:55.564Z,24.95
2023-02-11T07:07:23.117Z,27.87
2023-02-11T07:09:50.958Z,26.40
2023-02-11T07:12:18.543Z,26.50
2023-02-11T07:14:46.095Z,28.35
2023-02-11T07:17:14.082Z,29.17
2023-02-11T07:19:41.956Z,28.48
2023-02-11T07:22:09.531Z,33.27
2023-02-11T07:24:37.615Z,27.87
2023-02-11T07:27:05.218Z,29.87
2023-02-11T07:29:33.221Z,28.83
2023-02-11T07:32:01.133Z,28.35
2023-02-11T07:34:28.856Z,30.50
2023-02-11T07:36:56.403Z,30.70
2023-02-11T07:39:27.369Z,34.53
2023-02-11T07:41:55.441Z,33.63
2023-02-11T07:44:23.573Z,32.05
2023-02-11T07:46:51.481Z,36.60
2023-02-11T07:49:19.203Z,34.05
2023-02-11T07:51:47.414Z,35.97
2023-02-11T07:54:15.667Z,32.42
2023-02-11T07:56:43.352Z,35.10
2023-02-11T07:59:11.414Z,32.67
2023-02-11T08:01:39.330Z,34.75
2023-02-11T08:04:07.120Z,34.08
2023-02-11T08:06:35.809Z,36.97
2023-02-11T08:09:05.604Z,36.78
2023-02-11T08:11:33.486Z,33.23
2023-02-11T08:14:01.064Z,35.63
2023-02-11T08:16:31.605Z,36.03
2023-02-11T08:19:01.686Z,42.72
2023-02-11T08:21:29.839Z,37.03
2023-02-11T08:23:57.601Z,36.37
2023-02-11T08:26:28.442Z,38.38
2023-02-11T08:28:57.369Z,40.15
2023-02-11T08:31:28.437Z,38.10
2023-02-11T08:33:59.628Z,43.60
2023-02-11T08:36:35.653Z,37.70
2023-02-11T08:39:22.193Z,36.03
2023-02-11T08:41:52.764Z,37.58
2023-02-11T08:44:21.590Z,40.53
2023-02-11T08:46:50.172Z,41.13
2023-02-11T08:49:18.722Z,35.90
2023-02-11T08:51:46.636Z,34.90
2023-02-11T08:54:15.048Z,38.38
2023-02-11T08:56:43.221Z,34.38
2023-02-11T08:59:13.836Z,38.08
2023-02-11T09:01:41.764Z,35.80
2023-02-11T09:04:10.476Z,34.33
2023-02-11T09:06:37.990Z,36.63
2023-02-11T09:09:06.292Z,42.00
2023-02-11T09:11:35.841Z,45.15
2023-02-11T09:14:04.146Z,42.23
2023-02-11T09:16:34.506Z,41.25
2023-02-11T09:19:04.442Z,42.13
2023-02-11T09:21:32.188Z,43.47
2023-02-11T09:24:00.121Z,39.50
2023-02-11T09:26:30.803Z,43.40
2023-02-11T09:28:59.411Z,41.88
2023-02-11T09:31:28.584Z,43.28
2023-02-11T09:34:06.664Z,39.30
2023-02-11T09:36:37.450Z,39.28
2023-02-11T09:39:08.081Z,39.83
2023-02-11T09:41:46.899Z,38.92
2023-02-11T09:44:24.106Z,41.92
2023-02-11T09:47:00.455Z,41.60
2023-02-11T09:49:45.108Z,43.03
2023-02-11T09:52:53.687Z,39.13
2023-02-11T09:55:25.849Z,45.75
2023-02-11T09:57:53.819Z,43.13
2023-02-11T10:01:08.719Z,43.30
2023-02-11T10:03:42.648Z,40.50
2023-02-11T10:06:13.087Z,44.50
2023-02-11T10:08:59.779Z,46.50
2023-02-11T10:11:51.196Z,45.20
2023-02-11T10:14:37.910Z,48.33
2023-02-11T10:17:44.051Z,46.15
2023-02-11T10:20:26.629Z,45.80
2023-02-11T10:22:56.255Z,38.63
2023-02-11T10:25:28.481Z,41.00
2023-02-11T10:27:58.333Z,37.40
2023-02-11T10:30:33.144Z,41.72
2023-02-11T10:33:57.494Z,41.53
2023-02-11T10:36:34.185Z,43.35
2023-02-11T10:39:17.199Z,43.83
2023-02-11T10:41:58.481Z,45.63
2023-02-11T10:44:38.306Z,42.25
2023-02-11T10:47:23.087Z,43.00
2023-02-11T10:49:50.789Z,42.60
2023-02-11T10:52:27.075Z,45.20
2023-02-11T10:54:57.910Z,39.33
2023-02-11T10:57:33.599Z,37.38
2023-02-11T11:00:16.038Z,42.57
2023-02-11T11:02:44.704Z,37.65
2023-02-11T11:05:20.481Z,37.40
2023-02-11T11:07:54.377Z,37.88
2023-02-11T11:10:31.894Z,39.53
2023-02-11T11:12:59.918Z,35.77
2023-02-11T11:15:29.766Z,35.30
2023-02-11T11:18:23.001Z,42.97
2023-02-11T11:21:03.853Z,41.40
2023-02-11T11:23:32.282Z,33.75
2023-02-11T11:26:10.133Z,33.63
2023-02-11T11:28:46.989Z,31.10
2023-02-11T11:31:19.050Z,31.73
2023-02-11T11:33:47.523Z,28.98
2023-02-11T11:36:24.243Z,28.73
2023-02-11T11:38:56.218Z,27.53
2023-02-11T11:41:30.643Z,37.35
2023-02-11T11:44:12.876Z,23.55
2023-02-11T11:46:42.686Z,25.42
2023-02-11T11:49:31.411Z,26.80
2023-02-11T11:52:16.436Z,27.73
2023-02-11T11:54:50.219Z,27.87
2023-02-11T11:57:22.583Z,27.35
2023-02-11T11:59:50.344Z,26.50
2023-02-11T12:02:18.207Z,26.95
2023-02-11T12:05:02.751Z,25.13
2023-02-11T12:07:30.441Z,26.58
2023-02-11T12:10:10.365Z,28.58
2023-02-11T12:12:46.733Z,26.65
2023-02-11T12:15:17.360Z,24.20
2023-02-11T12:17:53.985Z,21.67
2023-02-11T12:20:40.982Z,22.80
2023-02-11T12:23:27.842Z,21.75
2023-02-11T12:26:20.917Z,26.90
2023-02-11T12:29:08.184Z,28.92
2023-02-11T12:31:38.866Z,26.40
2023-02-11T12:34:09.410Z,26.00
2023-02-11T12:36:54.442Z,25.10
2023-02-11T12:39:51.420Z,22.45
2023-02-11T12:42:51.485Z,22.85
2023-02-11T12:45:35.879Z,23.90
2023-02-11T12:48:17.071Z,26.27
2023-02-11T12:51:06.162Z,33.00
2023-02-11T12:53:34.020Z,20.83
2023-02-11T12:56:06.752Z,25.20
2023-02-11T12:58:45.099Z,23.70
2023-02-11T13:01:25.241Z,26.73
2023-02-11T13:04:09.320Z,23.95
2023-02-11T13:06:40.494Z,22.52
2023-02-11T13:09:41.245Z,23.70
2023-02-11T13:12:39.900Z,27.00
2023-02-11T13:15:13.606Z,21.65
2023-02-11T13:17:46.353Z,23.08
2023-02-11T13:20:20.419Z,24.98
2023-02-11T13:22:59.729Z,24.55
2023-02-11T13:25:30.948Z,31.00
2023-02-11T13:28:37.337Z,22.13
2023-02-11T13:31:07.809Z,24.45
2023-02-11T13:33:43.030Z,22.15
2023-02-11T13:36:13.608Z,26.05
2023-02-11T13:38:41.556Z,22.37
2023-02-11T13:41:21.207Z,26.80
2023-02-11T13:44:04.503Z,22.60
2023-02-11T13:47:01.425Z,22.73
2023-02-11T13:49:51.797Z,25.40
2023-02-11T13:52:37.435Z,24.33
2023-02-11T13:55:14.426Z,23.15
2023-02-11T13:57:42.703Z,20.60
2023-02-11T14:00:37.014Z,25.27
2023-02-11T14:03:29.961Z,26.80
2023-02-11T14:06:46.443Z,21.73
2023-02-11T14:09:14.314Z,26.23
2023-02-11T14:11:48.005Z,27.30
2023-02-11T14:14:19.907Z,25.85
2023-02-11T14:16:59.980Z,31.67
2023-02-11T14:19:40.772Z,25.27
2023-02-11T14:22:18.225Z,33.33
2023-02-11T14:24:51.000Z,30.62
2023-02-11T14:27:55.290Z,39.95
2023-02-11T14:30:48.808Z,28.67
2023-02-11T14:33:47.416Z,27.57
2023-02-11T14:36:18.010Z,25.17
2023-02-11T14:39:09.108Z,24.52
2023-02-11T14:41:40.979Z,25.65
2023-02-11T14:44:16.559Z,24.90
2023-02-11T14:46:46.812Z,24.27
2023-02-11T14:49:40.928Z,26.90
2023-02-11T14:52:33.247Z,26.33
2023-02-11T14:55:08.035Z,27.17
2023-02-11T14:57:37.920Z,25.05
2023-02-11T15:00:16.607Z,29.07
2023-02-11T15:02:45.278Z,30.25
2023-02-11T15:05:28.339Z,25.30
2023-02-11T15:07:59.186Z,28.60
2023-02-11T15:10:57.166Z,29.45
2023-02-11T15:13:31.118Z,35.70
2023-02-11T15:16:03.618Z,29.00
2023-02-11T15:18:38.738Z,33.63
2023-02-11T15:21:08.632Z,28.45
2023-02-11T15:23:37.159Z,31.25
2023-02-11T15:26:13.348Z,31.10
2023-02-11T15:28:48.891Z,39.08
2023-02-11T15:31:17.484Z,34.10
2023-02-11T15:33:45.796Z,33.72
2023-02-11T15:36:14.535Z,27.35
2023-02-11T15:38:42.226Z,28.10
2023-02-11T15:41:34.478Z,29.90
2023-02-11T15:44:02.320Z,31.05
2023-02-11T15:46:38.934Z,30.15
2023-02-11T15:49:08.610Z,29.60
2023-02-11T15:51:37.996Z,27.80
2023-02-11T15:54:09.235Z,29.40
2023-02-11T15:56:44.357Z,32.03
2023-02-11T15:59:18.622Z,30.55
2023-02-11T16:01:48.574Z,33.58
2023-02-11T16:04:22.011Z,35.87
2023-02-11T16:06:51.316Z,31.23
2023-02-11T16:09:19.041Z,30.08
2023-02-11T16:11:47.208Z,36.03
2023-02-11T16:14:28.018Z,32.83
2023-02-11T16:17:08.254Z,29.70
2023-02-11T16:19:37.107Z,28.02
2023-02-11T16:22:11.149Z,28.00
2023-02-11T16:24:39.631Z,27.08
2023-02-11T16:27:18.457Z,28.55
2023-02-11T16:29:47.936Z,29.40
2023-02-11T16:32:24.235Z,30.10
2023-02-11T16:34:53.321Z,26.55
2023-02-11T16:37:21.474Z,27.40
2023-02-11T16:39:49.305Z,33.58
2023-02-11T16:42:17.040Z,26.23
2023-02-11T16:44:45.047Z,29.77
2023-02-11T16:47:27.985Z,25.85
2023-02-11T16:49:56.853Z,27.08
2023-02-11T16:52:24.970Z,29.45
2023-02-11T16:54:52.846Z,29.50
2023-02-11T16:57:23.652Z,28.85
2023-02-11T16:59:52.010Z,31.65
2023-02-11T17:02:26.060Z,31.90
2023-02-11T17:04:54.913Z,35.50
2023-02-11T17:07:24.107Z,38.30
2023-02-11T17:09:52.292Z,34.47
2023-02-11T17:12:20.798Z,30.55
2023-02-11T17:14:48.621Z,32.60
2023-02-11T17:17:16.316Z,30.75
2023-02-11T17:19:44.443Z,28.60
2023-02-11T17:22:12.316Z,30.77
2023-02-11T17:24:39.917Z,29.58
2023-02-11T17:27:07.752Z,30.35
2023-02-11T17:29:35.696Z,30.12
2023-02-11T17:32:03.635Z,28.93
2023-02-11T17:34:32.404Z,26.15
2023-02-11T17:37:01.494Z,27.15
2023-02-11T17:39:29.047Z,28.67
2023-02-11T17:41:57.200Z,25.83
2023-02-11T17:44:25.339Z,28.10
2023-02-11T17:46:53.199Z,30.23
2023-02-11T17:49:20.949Z,31.33
2023-02-11T17:51:48.877Z,32.65
2023-02-11T17:54:18.691Z,28.25
2023-02-11T17:56:49.306Z,29.67
2023-02-11T17:59:18.433Z,31.02
2023-02-11T18:01:47.795Z,30.60
2023-02-11T18:04:18.847Z,25.90
2023-02-11T18:06:46.755Z,27.33
2023-02-11T18:09:14.357Z,29.07
2023-02-11T18:11:43.183Z,29.23
2023-02-11T18:14:10.879Z,28.00
2023-02-11T18:16:40.327Z,27.67
2023-02-11T18:19:08.341Z,28.95
2023-02-11T18:21:36.284Z,28.90
2023-02-11T18:24:06.937Z,24.80
2023-02-11T18:26:36.765Z,26.23
2023-02-11T18:29:06.963Z,23.02
2023-02-11T18:31:35.954Z,26.20
2023-02-11T18:34:08.045Z,23.60
2023-02-11T18:36:36.642Z,22.27
2023-02-11T18:39:05.800Z,29.23
2023-02-11T18:41:33.529Z,29.55
2023-02-11T18:44:03.173Z,25.02
2023-02-11T18:46:31.454Z,24.97
2023-02-11T18:48:59.384Z,24.77
2023-02-11T18:51:27.749Z,25.55
2023-02-11T18:53:55.418Z,26.33
2023-02-11T18:56:24.604Z,28.92
2023-02-11T18:58:52.972Z,28.43
2023-02-11T19:01:24.531Z,30.15
2023-02-11T19:03:54.341Z,35.42
2023-02-11T19:06:27.474Z,32.17
2023-02-11T19:08:59.709Z,33.13
2023-02-11T19:11:49.118Z,35.73
2023-02-11T19:14:23.336Z,33.08
2023-02-11T19:16:53.264Z,34.25
2023-02-11T19:19:23.580Z,29.77
2023-02-11T19:21:51.864Z,29.05
2023-02-11T19:24:22.435Z,28.10
2023-02-11T19:26:52.606Z,25.23
2023-02-11T19:29:20.634Z,28.25
2023-02-11T19:31:50.042Z,29.35
2023-02-11T19:34:19.985Z,24.50
2023-02-11T19:36:49.383Z,20.20
2023-02-11T19:39:18.507Z,25.75
2023-02-11T19:41:46.421Z,25.30
2023-02-11T19:44:14.263Z,22.23
2023-02-11T19:46:43.468Z,25.83
2023-02-11T19:49:15.036Z,25.30
2023-02-11T19:51:43.530Z,26.50
2023-02-11T19:54:12.125Z,25.30
2023-02-11T19:56:40.008Z,21.65
2023-02-11T19:59:09.068Z,25.95
2023-02-11T20:01:37.503Z,29.70
2023-02-11T20:04:06.580Z,25.40
2023-02-11T20:06:35.611Z,23.05
2023-02-11T20:09:10.095Z,22.52
2023-02-11T20:11:38.924Z,21.23
2023-02-11T20:14:07.316Z,20.80
2023-02-11T20:16:47.451Z,20.58
2023-02-11T20:19:20.001Z,23.17
2023-02-11T20:21:49.010Z,25.33
2023-02-11T20:24:18.317Z,19.92
2023-02-11T20:26:48.248Z,21.20
2023-02-11T20:29:17.614Z,21.12
2023-02-11T20:31:46.263Z,21.45
2023-02-11T20:34:14.443Z,21.05
2023-02-11T20:36:42.446Z,20.83
2023-02-11T20:39:11.503Z,23.67
2023-02-11T20:41:42.188Z,22.77
2023-02-11T20:44:10.757Z,24.42
2023-02-11T20:46:41.642Z,26.00
2023-02-11T20:49:11.874Z,22.15
2023-02-11T20:51:41.126Z,20.07
2023-02-11T20:54:13.334Z,22.27
2023-02-11T20:56:42.433Z,21.23
2023-02-11T20:59:11.866Z,26.45
2023-02-11T21:01:45.893Z,24.20
2023-02-11T21:04:16.917Z,21.20
2023-02-11T21:06:47.361Z,23.05
2023-02-11T21:09:22.038Z,21.70
2023-02-11T21:11:51.740Z,24.30
2023-02-11T21:14:22.271Z,22.65
2023-02-11T21:16:50.459Z,23.43
2023-02-11T21:19:18.338Z,19.60
2023-02-11T21:21:46.655Z,28.48
2023-02-11T21:24:14.758Z,22.30
2023-02-11T21:26:42.686Z,24.25
2023-02-11T21:29:11.644Z,23.23
2023-02-11T21:31:40.060Z,21.75
2023-02-11T21:34:08.102Z,25.40
2023-02-11T21:36:36.266Z,24.52
2023-02-11T21:39:04.279Z,21.67
2023-02-11T21:41:32.038Z,20.17
2023-02-11T21:44:00.526Z,20.67
2023-02-11T21:46:28.408Z,20.83
2023-02-11T21:48:57.084Z,20.30
2023-02-11T21:51:26.638Z,22.62
2023-02-11T21:53:56.142Z,23.27
2023-02-11T21:56:28.531Z,20.70
2023-02-11T21:58:59.009Z,20.80
2023-02-11T22:01:32.944Z,23.75
2023-02-11T22:04:00.878Z,19.30
2023-02-11T22:06:31.153Z,21.40
2023-02-11T22:09:02.331Z,22.00
2023-02-11T22:11:30.141Z,23.20
2023-02-11T22:13:59.109Z,21.50
2023-02-11T22:16:27.521Z,22.73
2023-02-11T22:18:56.979Z,22.30
2023-02-11T22:21:25.229Z,23.15
2023-02-11T22:23:54.791Z,23.05
2023-02-11T22:26:24.983Z,21.23
2023-02-11T22:28:53.657Z,22.30
2023-02-11T22:31:26.571Z,21.90
2023-02-11T22:33:54.815Z,20.90
2023-02-11T22:36:24.819Z,23.75
2023-02-11T22:38:53.618Z,21.50
2023-02-11T22:41:22.390Z,20.75
2023-02-11T22:43:50.105Z,23.63
2023-02-11T22:46:18.791Z,19.42
2023-02-11T22:48:47.122Z,23.15
2023-02-11T22:51:23.914Z,18.83
2023-02-11T22:54:03.506Z,21.50
2023-02-11T22:56:32.400Z,19.07
2023-02-11T22:59:03.114Z,22.20
2023-02-11T23:01:31.712Z,21.25
2023-02-11T23:04:01.380Z,24.05
2023-02-11T23:06:29.235Z,21.92
2023-02-11T23:08:57.603Z,21.00
2023-02-11T23:11:27.928Z,19.65
2023-02-11T23:13:56.294Z,22.15
2023-02-11T23:16:25.911Z,22.62
2023-02-11T23:18:53.938Z,25.48
2023-02-11T23:21:27.409Z,21.83
2023-02-11T23:24:00.436Z,22.98
2023-02-11T23:26:28.873Z,24.30
2023-02-11T23:28:58.540Z,23.30
2023-02-11T23:31:33.940Z,21.30
2023-02-11T23:34:02.013Z,18.73
2023-02-11T23:36:29.693Z,21.35
2023-02-11T23:38:57.688Z,23.00
2023-02-11T23:41:25.519Z,20.30
2023-02-11T23:43:55.610Z,20.95
2023-02-11T23:46:24.805Z,22.00
2023-02-11T23:48:53.070Z,25.62
2023-02-11T23:51:20.931Z,19.73
2023-02-11T23:53:51.422Z,21.58
2023-02-11T23:56:21.582Z,19.50
2023-02-11T23:58:50.185Z,20.87
